Time;durP1;ratioP1;P1;durP2;ratioP2;P2;SDS_P1;SDS_P2;PMS_P1;PMS_P2;Temp;Humidity;BMP_temperature;BMP_pressure;BME280_temperature;BME280_humidity;BME280_pressure;Samples;Min_cycle;Max_cycle;Signal;HPM_P1;HPM_P2
2022/05/11 00:01:19;;;;;;;4.57;2.63;;;17.70;99.90;;;;;;5063127;28;20197;-42
2022/05/11 00:03:44;;;;;;;3.50;2.43;;;17.60;99.90;;;;;;5060782;28;20768;-42
2022/05/11 00:06:10;;;;;;;3.00;2.33;;;17.60;99.90;;;;;;5070123;28;20193;-42
2022/05/11 00:08:36;;;;;;;3.83;2.40;;;17.60;99.90;;;;;;5070130;28;20246;-43
2022/05/11 00:11:02;;;;;;;5.40;3.17;;;17.60;99.90;;;;;;5069543;28;20257;-42
2022/05/11 00:13:28;;;;;;;2.90;2.70;;;17.60;99.90;;;;;;5068664;28;20181;-42
2022/05/11 00:15:54;;;;;;;3.10;2.80;;;17.60;99.90;;;;;;5067578;28;20427;-42
2022/05/11 00:18:20;;;;;;;4.13;2.67;;;17.60;99.90;;;;;;5060738;28;20515;-42
2022/05/11 00:20:46;;;;;;;3.30;2.80;;;17.50;99.90;;;;;;5069202;28;20500;-42
2022/05/11 00:23:11;;;;;;;3.33;2.80;;;17.60;99.90;;;;;;5069919;28;20204;-42
2022/05/11 00:25:37;;;;;;;3.53;2.63;;;17.50;99.90;;;;;;5069717;28;20189;-42
2022/05/11 00:28:03;;;;;;;3.87;2.63;;;17.60;99.90;;;;;;5069913;28;20200;-43
2022/05/11 00:30:29;;;;;;;7.53;2.60;;;17.60;99.90;;;;;;5069009;28;20322;-42
2022/05/11 00:32:57;;;;;;;2.60;2.40;;;17.60;99.90;;;;;;5058900;28;20189;-42
2022/05/11 00:35:24;;;;;;;2.87;2.43;;;17.60;99.90;;;;;;5069462;28;20454;-42
2022/05/11 00:37:50;;;;;;;3.10;2.60;;;17.60;99.90;;;;;;5069613;28;20967;-43
2022/05/11 00:40:17;;;;;;;2.93;2.43;;;17.50;99.90;;;;;;5079900;28;20462;-42
2022/05/11 00:42:43;;;;;;;4.13;3.27;;;17.50;99.90;;;;;;5089849;28;20222;-43
2022/05/11 00:45:09;;;;;;;3.77;3.37;;;17.40;99.90;;;;;;5089385;28;20434;-43
2022/05/11 00:47:48;;;;;;;3.20;2.90;;;17.30;99.90;;;;;;5063934;28;20182;-42
2022/05/11 00:50:25;;;;;;;3.20;2.90;;;17.30;99.90;;;;;;5068530;28;20411;-41
2022/05/11 00:53:09;;;;;;;3.20;2.90;;;17.30;99.90;;;;;;5068030;28;20981;-42
2022/05/11 00:55:37;;;;;;;4.27;3.17;;;17.30;99.90;;;;;;5069064;28;20419;-42
2022/05/11 00:58:19;;;;;;;4.23;3.17;;;17.20;99.90;;;;;;5069227;28;20447;-43
2022/05/11 01:00:46;;;;;;;3.40;3.10;;;17.20;99.90;;;;;;5068660;28;20948;-43
2022/05/11 01:03:21;;;;;;;3.20;2.90;;;17.20;99.90;;;;;;5052306;28;20435;-42
2022/05/11 01:05:47;;;;;;;4.93;3.57;;;17.20;99.90;;;;;;5069046;28;20419;-42
2022/05/11 01:08:15;;;;;;;4.03;2.77;;;17.20;99.90;;;;;;5068897;28;20518;-42
2022/05/11 01:10:42;;;;;;;5.30;3.10;;;17.20;99.90;;;;;;5068399;28;20463;-42
2022/05/11 01:13:11;;;;;;;4.20;3.20;;;17.10;99.90;;;;;;5068956;28;20496;-42
2022/05/11 01:15:38;;;;;;;3.80;2.93;;;17.10;99.90;;;;;;5069067;28;20808;-42
2022/05/11 01:18:07;;;;;;;3.67;3.37;;;17.10;99.90;;;;;;5058783;28;20431;-42
2022/05/11 01:20:36;;;;;;;6.17;3.30;;;17.10;99.90;;;;;;5068289;28;20902;-42
2022/05/11 01:23:37;;;;;;;4.17;3.30;;;17.10;99.90;;;;;;5068986;28;20443;-42
2022/05/11 01:26:03;;;;;;;3.60;3.20;;;17.10;99.90;;;;;;5075603;28;20517;-42
2022/05/11 01:28:30;;;;;;;5.40;3.70;;;17.10;99.90;;;;;;5089182;28;20513;-42
2022/05/11 01:31:05;;;;;;;3.57;3.20;;;17.10;99.90;;;;;;5088393;28;20470;-42
2022/05/11 01:33:31;;;;;;;4.90;3.60;;;17.20;99.90;;;;;;5058632;28;20861;-42
2022/05/11 01:36:11;;;;;;;6.13;4.20;;;17.20;99.90;;;;;;5070117;28;20427;-42
2022/05/11 01:38:41;;;;;;;4.40;3.70;;;17.20;99.90;;;;;;5085002;28;20805;-41
2022/05/11 01:41:09;;;;;;;5.10;4.40;;;17.10;99.90;;;;;;5088200;28;20436;-43
2022/05/11 01:43:37;;;;;;;4.20;3.73;;;17.10;99.90;;;;;;5088586;28;20422;-42
2022/05/11 01:46:04;;;;;;;5.13;3.63;;;17.10;99.90;;;;;;5089131;28;20931;-43
2022/05/11 01:48:30;;;;;;;4.60;3.37;;;17.10;99.90;;;;;;5061723;28;20466;-42
2022/05/11 01:50:56;;;;;;;6.63;3.70;;;17.10;99.90;;;;;;5068118;28;20467;-43
2022/05/11 01:53:22;;;;;;;3.80;3.17;;;17.10;99.90;;;;;;5068614;28;20835;-43
2022/05/11 01:55:48;;;;;;;6.03;4.03;;;17.10;99.90;;;;;;5067214;28;20430;-43
2022/05/11 01:58:14;;;;;;;4.57;3.57;;;17.10;99.90;;;;;;5068108;28;20431;-43
2022/05/11 02:00:43;;;;;;;5.00;3.00;;;17.10;99.90;;;;;;5068245;28;20431;-43
2022/05/11 02:03:09;;;;;;;4.70;2.90;;;17.10;99.90;;;;;;5057920;28;20454;-42
2022/05/11 02:08:19;;;;;;;3.40;3.10;;;17.10;99.90;;;;;;5059480;28;20427;-42
2022/05/11 02:10:45;;;;;;;7.77;3.60;;;17.10;99.90;;;;;;5087202;28;20829;-42
2022/05/11 02:13:11;;;;;;;3.80;2.97;;;17.10;99.90;;;;;;5072457;28;20184;-43
2022/05/11 02:15:37;;;;;;;6.07;3.27;;;17.10;99.90;;;;;;5072604;28;20434;-42
2022/05/11 02:18:04;;;;;;;3.10;2.80;;;17.10;99.90;;;;;;5063793;28;20300;-43
2022/05/11 02:20:30;;;;;;;3.50;3.20;;;17.00;99.90;;;;;;5067682;28;20412;-41
2022/05/11 02:22:55;;;;;;;4.80;3.23;;;17.00;99.90;;;;;;5070509;28;20423;-41
2022/05/11 02:25:21;;;;;;;3.70;2.90;;;17.00;99.90;;;;;;5071888;28;20450;-42
2022/05/11 02:27:50;;;;;;;3.97;3.60;;;17.00;99.90;;;;;;5072214;28;20260;-42
2022/05/11 02:30:23;;;;;;;5.50;3.60;;;17.00;99.90;;;;;;5071209;28;20548;-43
2022/05/11 02:32:48;;;;;;;3.23;2.93;;;17.00;99.90;;;;;;5064880;28;20515;-42
2022/05/11 02:35:16;;;;;;;5.90;3.17;;;16.90;99.90;;;;;;5065185;28;20507;-42
2022/05/11 02:37:51;;;;;;;4.97;2.70;;;17.00;99.90;;;;;;5070763;28;20189;-42
2022/05/11 02:40:23;;;;;;;4.90;3.43;;;17.00;99.90;;;;;;5085671;28;20414;-42
2022/05/11 02:42:49;;;;;;;4.03;2.90;;;17.00;99.90;;;;;;5080847;28;20787;-42
2022/05/11 02:45:16;;;;;;;5.00;3.77;;;17.00;99.90;;;;;;5089577;28;20418;-43
2022/05/11 02:47:43;;;;;;;3.67;3.37;;;16.90;99.90;;;;;;5073644;28;20190;-43
2022/05/11 02:50:12;;;;;;;3.60;3.23;;;16.90;99.90;;;;;;5068935;28;20419;-42
2022/05/11 02:52:37;;;;;;;4.17;3.50;;;16.90;99.90;;;;;;5070664;28;20474;-42
2022/05/11 02:55:04;;;;;;;5.57;3.63;;;16.90;99.90;;;;;;5070893;28;20926;-41
2022/05/11 02:57:30;;;;;;;3.23;2.90;;;16.90;99.90;;;;;;5071139;28;20204;-42
2022/05/11 02:59:57;;;;;;;4.43;3.00;;;16.90;99.90;;;;;;5069784;28;20511;-42
2022/05/11 03:02:23;;;;;;;7.13;3.30;;;16.90;99.90;;;;;;5047993;28;20197;-43
2022/05/11 03:04:50;;;;;;;4.33;3.30;;;16.90;99.90;;;;;;5080477;28;20423;-43
2022/05/11 03:07:16;;;;;;;3.63;3.20;;;16.90;99.90;;;;;;5070174;28;20962;-42
2022/05/11 03:09:42;;;;;;;4.57;3.20;;;16.80;99.90;;;;;;5070679;28;20423;-42
2022/05/11 03:12:09;;;;;;;6.57;2.93;;;16.80;99.90;;;;;;5086599;28;20462;-42
2022/05/11 03:14:34;;;;;;;3.47;3.17;;;16.70;99.90;;;;;;5069882;28;20438;-43
2022/05/11 03:17:02;;;;;;;3.20;3.00;;;16.70;99.90;;;;;;5071318;28;20902;-42
2022/05/11 03:19:29;;;;;;;4.60;3.50;;;16.70;99.90;;;;;;5059397;28;20695;-42
2022/05/11 03:21:55;;;;;;;3.73;3.10;;;16.70;99.90;;;;;;5070145;28;20441;-42
2022/05/11 03:24:21;;;;;;;5.30;3.67;;;16.70;99.90;;;;;;5071060;28;20532;-43
2022/05/11 03:26:46;;;;;;;3.33;3.03;;;16.70;99.90;;;;;;5070974;28;20961;-42
2022/05/11 03:29:12;;;;;;;5.90;3.10;;;16.80;99.90;;;;;;5086566;28;20262;-43
2022/05/11 03:31:39;;;;;;;5.73;3.40;;;16.80;99.90;;;;;;5070236;28;20230;-42
2022/05/11 03:36:50;;;;;;;3.30;2.70;;;16.90;99.90;;;;;;5069502;28;20430;-42
2022/05/11 03:39:16;;;;;;;3.60;2.60;;;16.90;99.90;;;;;;5079190;28;20437;-42
2022/05/11 03:41:45;;;;;;;4.07;3.53;;;16.90;99.90;;;;;;5084064;28;20741;-42
2022/05/11 03:44:11;;;;;;;4.27;3.27;;;16.90;99.90;;;;;;5090992;28;20468;-42
2022/05/11 03:46:37;;;;;;;4.63;3.30;;;16.80;99.90;;;;;;5088705;28;20434;-42
2022/05/11 03:49:03;;;;;;;4.50;3.50;;;16.70;99.90;;;;;;5064191;28;20999;-42
2022/05/11 03:51:29;;;;;;;3.17;2.90;;;16.70;99.90;;;;;;5070031;28;20602;-42
2022/05/11 03:53:55;;;;;;;4.53;3.47;;;16.70;99.90;;;;;;5070505;28;20454;-42
2022/05/11 03:56:21;;;;;;;3.33;3.00;;;16.70;99.90;;;;;;5070452;28;20443;-42
2022/05/11 03:58:47;;;;;;;6.57;3.03;;;16.70;99.90;;;;;;5069036;28;20427;-43
2022/05/11 04:01:14;;;;;;;3.30;3.00;;;16.60;99.90;;;;;;5069714;28;20423;-42
2022/05/11 04:03:41;;;;;;;3.97;3.20;;;16.60;99.90;;;;;;5060501;28;20271;-42
2022/05/11 04:06:06;;;;;;;3.90;3.50;;;16.60;99.90;;;;;;5065820;28;20477;-43
2022/05/11 04:08:33;;;;;;;5.00;2.90;;;16.60;99.90;;;;;;5070211;28;20423;-42
2022/05/11 04:10:58;;;;;;;6.10;2.83;;;16.70;99.90;;;;;;5069636;28;20213;-42
2022/05/11 04:13:25;;;;;;;4.73;3.33;;;16.60;99.90;;;;;;5069763;28;20514;-42
2022/05/11 04:15:52;;;;;;;3.80;2.70;;;16.60;99.90;;;;;;5070222;28;20224;-42
2022/05/11 04:18:19;;;;;;;4.73;3.10;;;16.60;99.90;;;;;;5063291;28;20436;-43
2022/05/11 04:20:45;;;;;;;3.40;3.10;;;16.60;99.90;;;;;;5065551;28;20439;-42
2022/05/11 04:23:11;;;;;;;3.27;2.90;;;16.70;99.90;;;;;;5069826;28;20427;-43
2022/05/11 04:25:37;;;;;;;3.17;2.97;;;16.70;99.90;;;;;;5069433;28;20272;-43
2022/05/11 04:28:07;;;;;;;3.40;3.10;;;16.80;99.90;;;;;;5069631;28;20208;-42
2022/05/11 04:30:34;;;;;;;3.00;2.70;;;16.80;99.90;;;;;;5069016;28;20423;-42
2022/05/11 04:33:00;;;;;;;3.53;3.07;;;16.80;99.90;;;;;;5066438;28;20965;-42
2022/05/11 04:35:32;;;;;;;3.90;3.43;;;16.80;99.90;;;;;;5073640;28;20430;-42
2022/05/11 04:37:58;;;;;;;4.47;3.10;;;16.70;99.90;;;;;;5068802;28;20212;-42
2022/05/11 04:40:25;;;;;;;3.30;2.87;;;16.70;99.90;;;;;;5084046;28;20430;-42
2022/05/11 04:42:51;;;;;;;3.77;3.10;;;16.80;99.90;;;;;;5066083;28;20504;-42
2022/05/11 04:45:17;;;;;;;3.20;2.90;;;16.80;99.90;;;;;;5062922;28;20439;-42
2022/05/11 04:47:45;;;;;;;6.17;3.30;;;16.80;99.90;;;;;;5064942;28;20435;-43
2022/05/11 04:50:12;;;;;;;5.33;3.30;;;16.90;99.90;;;;;;5058605;28;20424;-43
2022/05/11 04:52:38;;;;;;;4.17;3.07;;;16.90;99.90;;;;;;5069334;28;20502;-42
2022/05/11 04:55:05;;;;;;;3.50;3.20;;;16.80;99.90;;;;;;5073754;28;20447;-43
2022/05/11 04:57:32;;;;;;;3.30;3.00;;;16.80;99.90;;;;;;5077782;28;20266;-42
2022/05/11 04:59:58;;;;;;;5.30;3.00;;;16.80;99.90;;;;;;5068185;28;20909;-42
2022/05/11 05:02:25;;;;;;;3.20;2.90;;;16.90;99.90;;;;;;5063612;28;20439;-43
2022/05/11 05:04:51;;;;;;;5.00;3.23;;;16.90;99.90;;;;;;5058574;28;20189;-43
2022/05/11 05:07:18;;;;;;;3.40;3.00;;;16.90;99.90;;;;;;5068812;28;20423;-43
2022/05/11 05:09:44;;;;;;;4.17;3.77;;;16.90;99.90;;;;;;5068483;28;20515;-43
2022/05/11 05:12:12;;;;;;;3.37;2.97;;;16.90;99.90;;;;;;5068246;28;20579;-42
2022/05/11 05:14:38;;;;;;;3.60;3.30;;;17.00;99.90;;;;;;5083817;28;20508;-42
2022/05/11 05:17:06;;;;;;;3.17;2.93;;;17.10;99.90;;;;;;5068961;28;20427;-43
2022/05/11 05:19:32;;;;;;;4.70;3.63;;;17.00;99.90;;;;;;5062207;28;20430;-43
2022/05/11 05:22:02;;;;;;;6.20;3.77;;;17.10;99.90;;;;;;5067144;28;20427;-43
2022/05/11 05:24:28;;;;;;;4.30;3.40;;;17.10;99.90;;;;;;5077360;28;20484;-42
2022/05/11 05:26:53;;;;;;;4.70;3.07;;;17.10;99.90;;;;;;5076326;28;20441;-43
2022/05/11 05:32:05;;;;;;;5.23;3.93;;;17.20;99.90;;;;;;5068450;28;20229;-42
2022/05/11 05:34:30;;;;;;;3.90;3.60;;;17.20;99.90;;;;;;5059981;28;20515;-42
2022/05/11 05:36:56;;;;;;;4.37;2.83;;;17.30;99.90;;;;;;5067976;28;20515;-43
2022/05/11 05:39:21;;;;;;;4.23;3.40;;;17.40;99.90;;;;;;5077242;28;20777;-42
2022/05/11 05:41:47;;;;;;;4.30;3.50;;;17.40;99.90;;;;;;5087687;28;20705;-42
2022/05/11 05:44:13;;;;;;;3.10;2.73;;;17.40;99.90;;;;;;5089227;28;20666;-42
2022/05/11 05:46:39;;;;;;;5.40;3.60;;;17.50;99.90;;;;;;5075067;28;20677;-42
2022/05/11 05:49:05;;;;;;;5.00;3.87;;;17.50;99.90;;;;;;5061351;28;20559;-43
2022/05/11 05:51:31;;;;;;;9.43;4.27;;;17.50;99.90;;;;;;5067480;28;20463;-42
2022/05/11 05:53:58;;;;;;;6.73;4.03;;;17.70;99.90;;;;;;5061778;28;20424;-43
2022/05/11 05:56:23;;;;;;;4.37;3.17;;;17.90;99.90;;;;;;5067301;28;20455;-43
2022/05/11 05:58:49;;;;;;;4.37;3.50;;;18.20;99.90;;;;;;5068458;28;20431;-42
2022/05/11 06:01:16;;;;;;;4.30;3.90;;;18.40;99.90;;;;;;5065473;28;20209;-43
2022/05/11 06:03:44;;;;;;;3.80;3.40;;;18.80;99.90;;;;;;5060739;28;20439;-43
2022/05/11 06:06:11;;;;;;;5.63;4.10;;;19.00;99.90;;;;;;5063886;28;20462;-43
2022/05/11 06:08:37;;;;;;;5.30;3.83;;;19.30;99.90;;;;;;5067062;28;20433;-43
2022/05/11 06:11:05;;;;;;;4.33;4.00;;;19.60;99.90;;;;;;5083619;28;20465;-43
2022/05/11 06:13:30;;;;;;;5.07;4.50;;;19.80;99.90;;;;;;5082844;28;20414;-42
2022/05/11 06:15:56;;;;;;;5.93;5.37;;;20.00;99.90;;;;;;5087008;28;20841;-42
2022/05/11 06:18:26;;;;;;;5.07;4.60;;;20.10;99.90;;;;;;5075651;28;20203;-42
2022/05/11 06:20:52;;;;;;;5.90;5.13;;;20.20;99.80;;;;;;5072294;28;20599;-42
2022/05/11 06:23:19;;;;;;;5.80;5.20;;;20.40;99.60;;;;;;5069424;28;20431;-43
2022/05/11 06:25:46;;;;;;;5.87;5.20;;;20.40;99.40;;;;;;5064586;28;20555;-43
2022/05/11 06:28:11;;;;;;;5.97;5.37;;;20.50;99.70;;;;;;5069374;28;20458;-43
2022/05/11 06:30:37;;;;;;;7.57;5.30;;;20.60;99.80;;;;;;5075099;28;20897;-42
2022/05/11 06:33:03;;;;;;;5.67;5.17;;;20.60;99.70;;;;;;5078276;28;20599;-42
2022/05/11 06:35:29;;;;;;;8.53;5.17;;;20.70;99.90;;;;;;5069550;28;20189;-42
2022/05/11 06:37:57;;;;;;;6.20;5.60;;;20.90;99.70;;;;;;5087696;28;20431;-42
2022/05/11 06:40:23;;;;;;;5.20;4.70;;;20.90;99.30;;;;;;5067679;28;20456;-42
2022/05/11 06:42:49;;;;;;;6.47;5.30;;;21.00;99.40;;;;;;5079203;28;20475;-42
2022/05/11 06:45:15;;;;;;;6.50;5.70;;;21.10;99.30;;;;;;5074464;28;21016;-42
2022/05/11 06:47:41;;;;;;;5.93;5.20;;;21.30;99.40;;;;;;5076494;28;20469;-42
2022/05/11 06:50:08;;;;;;;6.80;6.20;;;21.30;99.40;;;;;;5076645;28;20521;-43
2022/05/11 06:52:34;;;;;;;6.90;6.17;;;21.40;99.70;;;;;;5078669;28;20572;-42
2022/05/11 07:00:32;;;;;;;8.03;7.30;;;21.50;99.20;;;;;;5070860;28;20458;-42
2022/05/11 07:02:59;;;;;;;10.87;7.83;;;21.40;99.40;;;;;;5071602;28;20430;-42
2022/05/11 07:05:26;;;;;;;8.17;7.37;;;21.40;99.30;;;;;;5058544;28;20479;-42
2022/05/11 07:07:52;;;;;;;8.27;5.80;;;21.40;99.60;;;;;;5070625;28;20495;-42
2022/05/11 07:10:19;;;;;;;7.43;6.80;;;21.40;99.80;;;;;;5070940;28;20427;-42
2022/05/11 07:12:47;;;;;;;7.97;6.80;;;21.40;99.90;;;;;;5070959;28;20475;-43
2022/05/11 07:15:21;;;;;;;7.77;6.97;;;21.50;99.90;;;;;;5071368;28;20466;-42
2022/05/11 07:17:48;;;;;;;9.40;8.60;;;21.60;99.60;;;;;;5071168;28;20932;-42
2022/05/11 07:20:22;;;;;;;8.57;7.77;;;21.60;98.90;;;;;;5058829;28;20428;-42
2022/05/11 07:22:47;;;;;;;11.40;8.93;;;21.60;98.90;;;;;;5077999;28;20511;-42
2022/05/11 07:25:16;;;;;;;9.50;7.60;;;21.60;98.70;;;;;;5087338;28;20901;-43
2022/05/11 07:27:44;;;;;;;9.90;8.37;;;21.70;98.90;;;;;;5071790;28;20177;-43
2022/05/11 07:30:13;;;;;;;10.27;8.50;;;21.80;99.10;;;;;;5070490;28;20435;-43
2022/05/11 07:32:39;;;;;;;9.27;8.27;;;21.90;98.70;;;;;;5052824;28;20535;-42
2022/05/11 07:35:05;;;;;;;10.13;8.87;;;21.90;98.20;;;;;;5062447;28;20427;-42
2022/05/11 07:37:31;;;;;;;11.00;8.47;;;21.90;98.60;;;;;;5082326;28;20208;-42
2022/05/11 07:39:59;;;;;;;7.90;7.17;;;21.80;98.60;;;;;;5085519;28;20961;-42
2022/05/11 07:42:25;;;;;;;10.60;9.23;;;21.90;98.70;;;;;;5070775;28;20201;-42
2022/05/11 07:44:51;;;;;;;12.30;8.40;;;21.90;98.00;;;;;;5069359;28;20434;-42
2022/05/11 07:47:17;;;;;;;9.77;8.03;;;22.00;98.40;;;;;;5070696;28;20443;-42
2022/05/11 07:49:43;;;;;;;8.50;7.63;;;22.00;98.00;;;;;;5063996;28;20771;-42
2022/05/11 07:52:08;;;;;;;10.30;8.90;;;22.00;97.30;;;;;;5065336;28;20467;-43
2022/05/11 07:54:34;;;;;;;9.73;7.70;;;21.90;97.20;;;;;;5070420;28;20213;-42
2022/05/11 07:59:56;;;;;;;8.00;6.77;;;21.70;96.90;;;;;;5069770;28;20781;-42
2022/05/11 08:02:27;;;;;;;7.80;7.00;;;21.60;97.50;;;;;;5070153;28;20931;-42
2022/05/11 08:04:57;;;;;;;6.10;5.50;;;21.50;97.50;;;;;;5063634;28;20985;-42
2022/05/11 08:07:26;;;;;;;5.90;5.30;;;21.40;97.70;;;;;;5065642;28;20427;-43
2022/05/11 08:09:56;;;;;;;7.33;5.47;;;21.40;97.80;;;;;;5067987;28;20457;-42
2022/05/11 08:12:21;;;;;;;7.07;5.83;;;21.30;97.90;;;;;;5085944;28;21242;-42
2022/05/11 08:14:47;;;;;;;7.20;5.90;;;21.30;97.50;;;;;;5070058;28;20415;-42
2022/05/11 08:17:13;;;;;;;6.10;5.33;;;21.30;97.60;;;;;;5070077;28;20276;-42
2022/05/11 08:19:42;;;;;;;8.67;5.50;;;21.20;97.60;;;;;;5065431;28;20824;-42
2022/05/11 08:22:07;;;;;;;7.07;6.07;;;21.20;98.00;;;;;;5063787;28;20431;-43
2022/05/11 08:24:33;;;;;;;6.23;5.00;;;21.20;98.40;;;;;;5068432;28;20435;-43
2022/05/11 08:26:59;;;;;;;7.73;5.17;;;21.20;98.20;;;;;;5052272;28;20734;-42
2022/05/11 08:34:53;;;;;;;5.73;4.10;;;21.30;98.50;;;;;;5064760;28;20467;-42
2022/05/11 08:37:19;;;;;;;6.10;5.00;;;21.40;98.30;;;;;;5065383;28;20473;-42
2022/05/11 08:39:45;;;;;;;6.40;4.90;;;21.40;97.50;;;;;;5069675;28;20463;-42
2022/05/11 08:42:12;;;;;;;4.47;3.73;;;21.40;97.50;;;;;;5087744;28;20192;-42
2022/05/11 08:44:45;;;;;;;5.80;4.87;;;21.40;97.90;;;;;;5084695;28;20430;-42
2022/05/11 08:47:20;;;;;;;8.93;4.63;;;21.40;98.30;;;;;;5083165;28;20438;-42
2022/05/11 08:49:53;;;;;;;6.40;4.20;;;21.40;97.70;;;;;;5082364;28;20448;-43
2022/05/11 08:52:43;;;;;;;3.73;3.43;;;21.40;98.30;;;;;;5077777;28;20524;-43
2022/05/11 08:55:14;;;;;;;4.97;4.13;;;21.50;98.10;;;;;;5068182;28;20419;-42
2022/05/11 08:57:41;;;;;;;5.20;3.90;;;21.60;98.20;;;;;;5069503;28;20458;-43
2022/05/11 09:00:14;;;;;;;8.63;4.17;;;21.60;97.80;;;;;;5067230;28;20428;-42
2022/05/11 09:02:51;;;;;;;3.90;3.53;;;21.60;97.50;;;;;;5069371;28;20427;-42
2022/05/11 09:05:19;;;;;;;5.13;4.23;;;21.60;97.50;;;;;;5061151;28;20464;-42
2022/05/11 09:07:48;;;;;;;4.00;3.60;;;21.70;97.40;;;;;;5065989;28;20423;-42
2022/05/11 09:10:25;;;;;;;11.10;4.30;;;21.70;97.90;;;;;;5068665;28;20462;-43
2022/05/11 09:13:03;;;;;;;3.47;3.27;;;21.80;96.80;;;;;;5068945;28;20454;-42
2022/05/11 09:15:54;;;;;;;4.13;3.73;;;21.90;97.20;;;;;;5069113;28;20526;-43
2022/05/11 09:18:21;;;;;;;5.17;3.87;;;22.00;97.60;;;;;;5069755;28;20418;-43
2022/05/11 09:20:52;;;;;;;6.07;4.40;;;22.10;97.00;;;;;;5071910;28;20435;-42
2022/05/11 09:23:32;;;;;;;5.37;3.80;;;22.20;96.30;;;;;;5063719;28;20987;-43
2022/05/11 09:26:10;;;;;;;6.03;4.10;;;22.30;96.40;;;;;;5066196;28;20419;-42
2022/05/11 09:28:40;;;;;;;6.60;4.17;;;22.30;96.00;;;;;;5068993;28;20412;-42
2022/05/11 09:31:07;;;;;;;6.93;4.77;;;22.30;95.90;;;;;;5068472;28;20946;-42
2022/05/11 09:33:41;;;;;;;4.90;4.00;;;22.40;96.00;;;;;;5067486;28;20424;-42
2022/05/11 09:36:09;;;;;;;4.17;3.77;;;22.60;96.90;;;;;;5061860;28;20435;-43
2022/05/11 09:38:42;;;;;;;5.40;3.90;;;22.70;95.60;;;;;;5070425;28;20788;-43
2022/05/11 09:41:17;;;;;;;6.33;4.60;;;22.80;95.60;;;;;;5068405;28;20453;-43
2022/05/11 09:43:54;;;;;;;5.23;4.63;;;22.80;95.90;;;;;;5072411;28;20988;-43
2022/05/11 09:46:33;;;;;;;11.80;4.37;;;22.90;95.50;;;;;;5089181;28;20448;-42
2022/05/11 09:49:17;;;;;;;5.67;4.00;;;22.90;95.30;;;;;;5056329;28;20829;-42
2022/05/11 09:51:46;;;;;;;3.50;3.20;;;23.00;95.40;;;;;;5056170;28;20459;-43
2022/05/11 09:54:22;;;;;;;4.10;3.70;;;23.10;95.50;;;;;;5068713;28;20450;-43
2022/05/11 09:57:01;;;;;;;4.00;3.30;;;23.20;95.40;;;;;;5068580;28;20439;-43
2022/05/11 09:59:30;;;;;;;4.63;3.77;;;23.30;95.40;;;;;;5068095;28;20921;-42
2022/05/11 10:02:11;;;;;;;5.00;3.50;;;23.40;96.10;;;;;;5067989;28;20419;-43
2022/05/11 10:04:41;;;;;;;4.10;3.17;;;23.50;95.70;;;;;;5068518;28;20426;-43
2022/05/11 10:07:10;;;;;;;4.03;3.50;;;23.60;95.30;;;;;;5076797;28;20652;-42
2022/05/11 10:09:44;;;;;;;5.40;3.83;;;23.70;95.20;;;;;;5066432;28;20454;-42
2022/05/11 10:12:21;;;;;;;6.40;3.83;;;23.70;95.10;;;;;;5068629;28;20511;-42
2022/05/11 10:23:28;;;;;;;6.77;3.67;;;23.70;93.90;;;;;;5066231;28;20411;-43
2022/05/11 10:26:04;;;;;;;7.33;4.67;;;23.80;94.30;;;;;;5070926;28;20419;-41
2022/05/11 10:28:52;;;;;;;3.83;3.27;;;23.90;95.00;;;;;;5072099;28;20461;-41
2022/05/11 10:31:37;;;;;;;9.53;4.17;;;24.00;94.30;;;;;;5055125;28;20933;-41
2022/05/11 10:34:20;;;;;;;4.50;4.13;;;24.10;94.20;;;;;;5071956;28;20419;-41
2022/05/11 10:36:51;;;;;;;5.20;4.60;;;24.10;93.60;;;;;;5059066;28;20436;-41
2022/05/11 10:39:32;;;;;;;6.50;4.77;;;24.10;93.30;;;;;;5074202;28;20426;-41
2022/05/11 10:42:13;;;;;;;5.20;3.97;;;24.10;92.60;;;;;;5069232;28;20475;-41
2022/05/11 10:44:57;;;;;;;5.87;4.80;;;24.10;93.30;;;;;;5071019;28;20429;-41
2022/05/11 10:48:00;;;;;;;7.60;5.10;;;24.20;93.10;;;;;;5060427;28;20458;-41
2022/05/11 10:50:29;;;;;;;6.17;4.20;;;24.20;93.00;;;;;;5055339;28;20456;-41
2022/05/11 10:53:04;;;;;;;5.73;5.23;;;24.20;93.00;;;;;;5066751;28;20465;-41
2022/05/11 10:55:51;;;;;;;6.47;4.27;;;24.20;92.50;;;;;;5071675;28;20411;-41
2022/05/11 10:58:44;;;;;;;5.50;5.00;;;24.20;93.10;;;;;;5071920;28;20467;-41
2022/05/11 11:01:13;;;;;;;3.83;3.43;;;24.30;92.70;;;;;;5070955;28;20427;-41
2022/05/11 11:04:01;;;;;;;4.43;3.80;;;24.40;92.90;;;;;;5071712;28;20435;-41
2022/05/11 11:09:52;;;;;;;4.00;3.70;;;24.40;93.40;;;;;;5069028;28;20419;-41
2022/05/11 11:12:21;;;;;;;4.00;3.60;;;24.50;92.70;;;;;;5071216;28;20792;-41
2022/05/11 11:14:51;;;;;;;6.23;4.43;;;24.60;92.80;;;;;;5071455;28;20421;-41
2022/05/11 11:17:23;;;;;;;5.60;3.70;;;24.60;91.30;;;;;;5071213;28;20526;-41
2022/05/11 11:19:52;;;;;;;6.70;3.77;;;24.70;92.60;;;;;;5070811;28;20431;-41
2022/05/11 11:22:18;;;;;;;6.13;4.27;;;24.70;92.60;;;;;;5077576;28;20508;-41
2022/05/11 11:25:10;;;;;;;5.30;4.80;;;24.70;91.80;;;;;;5070982;28;20465;-41
2022/05/11 11:28:00;;;;;;;4.43;4.00;;;24.70;92.00;;;;;;5070961;28;20902;-41
2022/05/11 11:30:26;;;;;;;4.20;3.80;;;24.80;92.50;;;;;;5070454;28;20518;-41
2022/05/11 11:33:12;;;;;;;7.93;4.07;;;24.80;92.30;;;;;;5070951;28;20566;-41
2022/05/11 11:35:42;;;;;;;4.53;4.13;;;24.80;92.00;;;;;;5060579;28;20695;-41
2022/05/11 11:38:22;;;;;;;6.30;4.20;;;24.90;91.10;;;;;;5069660;28;20437;-41
2022/05/11 11:41:12;;;;;;;4.07;3.60;;;24.80;90.50;;;;;;5073925;28;21040;-41
2022/05/11 11:43:49;;;;;;;4.20;3.80;;;24.80;91.50;;;;;;5067552;28;20415;-41
2022/05/11 11:46:34;;;;;;;4.33;4.00;;;24.90;92.10;;;;;;5086465;28;20427;-41
2022/05/11 11:49:16;;;;;;;4.80;3.70;;;25.00;91.70;;;;;;5050837;28;21061;-41
2022/05/11 11:52:04;;;;;;;3.97;3.67;;;25.00;91.20;;;;;;5061667;28;20845;-41
2022/05/11 11:54:34;;;;;;;6.70;3.63;;;25.00;90.80;;;;;;5066633;28;20442;-41
2022/05/11 11:57:00;;;;;;;8.97;4.10;;;25.00;90.40;;;;;;5067950;28;20975;-41
2022/05/11 11:59:28;;;;;;;4.17;3.30;;;25.00;90.50;;;;;;5070290;28;20494;-41
2022/05/11 12:01:58;;;;;;;4.40;3.70;;;25.00;90.50;;;;;;5069678;28;20776;-41
2022/05/11 12:04:37;;;;;;;3.70;3.40;;;25.10;90.70;;;;;;5070150;28;20863;-41
2022/05/11 12:16:10;;;;;;;3.73;3.43;;;25.20;88.30;;;;;;5074916;28;20423;-41
2022/05/11 12:18:38;;;;;;;4.07;3.77;;;25.20;89.20;;;;;;5075746;28;20421;-41
2022/05/11 12:21:10;;;;;;;6.37;3.50;;;25.20;90.40;;;;;;5075052;28;20505;-41
2022/05/11 12:23:48;;;;;;;4.20;3.80;;;25.30;90.50;;;;;;5075510;28;20455;-41
2022/05/11 12:26:22;;;;;;;4.43;3.50;;;25.30;88.80;;;;;;5073102;28;20465;-41
2022/05/11 12:28:48;;;;;;;5.30;4.23;;;25.20;88.00;;;;;;5069902;28;20571;-41
2022/05/11 12:31:40;;;;;;;5.23;3.50;;;25.20;88.70;;;;;;5069197;28;20986;-41
2022/05/11 12:34:06;;;;;;;6.27;4.07;;;25.20;89.30;;;;;;5067527;28;20567;-41
2022/05/11 12:36:37;;;;;;;4.87;4.03;;;25.20;89.10;;;;;;5066302;28;20433;-41
2022/05/11 12:39:04;;;;;;;4.50;4.10;;;25.20;87.10;;;;;;5074669;28;20420;-41
2022/05/11 12:41:31;;;;;;;7.57;3.90;;;25.20;89.20;;;;;;5069326;28;20470;-41
2022/05/11 12:44:12;;;;;;;4.33;3.67;;;25.30;88.30;;;;;;5068629;28;20434;-41
2022/05/11 12:46:42;;;;;;;4.00;3.57;;;25.40;89.20;;;;;;5069099;28;20439;-41
2022/05/11 12:49:13;;;;;;;4.00;3.50;;;25.40;87.50;;;;;;5069681;28;20522;-41
2022/05/11 12:51:51;;;;;;;7.90;3.40;;;25.40;86.80;;;;;;5065421;28;20462;-41
2022/05/11 12:54:19;;;;;;;3.77;3.37;;;25.40;86.50;;;;;;5063828;28;20477;-41
2022/05/11 12:57:05;;;;;;;5.07;3.10;;;25.50;87.20;;;;;;5069094;28;20444;-41
2022/05/11 12:59:33;;;;;;;5.37;3.30;;;25.50;89.40;;;;;;5069467;28;20466;-41
2022/05/11 13:02:25;;;;;;;4.30;3.87;;;25.60;89.90;;;;;;5069053;28;20893;-41
2022/05/11 13:05:01;;;;;;;3.83;3.53;;;25.70;88.70;;;;;;5069135;28;20427;-41
2022/05/11 13:07:34;;;;;;;4.53;3.73;;;25.80;88.00;;;;;;5063141;28;20441;-41
2022/05/11 13:10:04;;;;;;;4.30;3.80;;;25.80;85.50;;;;;;5076174;28;20469;-41
2022/05/11 13:12:32;;;;;;;5.57;3.90;;;25.70;84.70;;;;;;5079137;28;20519;-41
2022/05/11 13:15:00;;;;;;;5.03;4.23;;;25.70;85.50;;;;;;5077124;28;20438;-41
2022/05/11 13:17:34;;;;;;;4.67;3.40;;;25.70;86.20;;;;;;5064730;28;20445;-41
2022/05/11 13:20:22;;;;;;;6.70;4.00;;;25.70;86.30;;;;;;5060335;28;20912;-41
2022/05/11 13:22:58;;;;;;;5.87;3.97;;;25.70;87.70;;;;;;5060532;28;20461;-41
2022/05/11 13:25:42;;;;;;;6.50;3.77;;;25.70;85.00;;;;;;5064357;28;20458;-41
2022/05/11 13:28:23;;;;;;;4.60;3.40;;;25.70;84.50;;;;;;5085056;28;20430;-41
2022/05/11 13:30:53;;;;;;;4.33;3.93;;;25.60;85.70;;;;;;5067977;28;20943;-41
2022/05/11 13:33:34;;;;;;;4.13;3.80;;;25.60;85.40;;;;;;5069573;28;20424;-42
2022/05/11 13:36:23;;;;;;;5.30;3.60;;;25.60;86.20;;;;;;5055541;28;20497;-41
2022/05/11 13:38:56;;;;;;;4.87;4.20;;;25.70;89.30;;;;;;5062047;28;20431;-41
2022/05/11 13:41:26;;;;;;;4.90;3.77;;;25.80;86.50;;;;;;5074840;28;20419;-41
2022/05/11 13:43:58;;;;;;;5.13;3.97;;;25.80;86.30;;;;;;5067436;28;20439;-41